createdAt,value
2022-12-09T00:00:09.764Z,22.83
2022-12-09T00:02:38.829Z,30.10
2022-12-09T00:05:07.843Z,29.90
2022-12-09T00:07:36.581Z,24.70
2022-12-09T00:10:05.232Z,23.30
2022-12-09T00:12:35.377Z,27.70
2022-12-09T00:15:04.104Z,27.03
2022-12-09T00:17:32.597Z,26.20
2022-12-09T00:20:01.132Z,28.30
2022-12-09T00:22:29.824Z,25.87
2022-12-09T00:24:58.363Z,27.33
2022-12-09T00:27:26.780Z,26.40
2022-12-09T00:29:56.520Z,28.27
2022-12-09T00:32:25.035Z,26.47
2022-12-09T00:34:53.789Z,29.53
2022-12-09T00:37:22.217Z,26.23
2022-12-09T00:39:50.801Z,25.73
2022-12-09T00:42:19.291Z,28.80
2022-12-09T00:44:47.753Z,24.67
2022-12-09T00:47:17.661Z,23.83
2022-12-09T00:49:46.301Z,22.87
2022-12-09T00:52:15.060Z,23.63
2022-12-09T00:54:43.669Z,22.77
2022-12-09T00:57:12.302Z,22.40
2022-12-09T00:59:40.882Z,21.60
2022-12-09T01:02:09.625Z,22.20
2022-12-09T01:04:39.438Z,21.97
2022-12-09T01:07:08.374Z,22.37
2022-12-09T01:09:36.820Z,22.83
2022-12-09T01:12:05.745Z,23.00
2022-12-09T01:14:34.298Z,23.83
2022-12-09T01:17:03.392Z,25.43
2022-12-09T01:19:31.835Z,21.20
2022-12-09T01:22:02.034Z,23.10
2022-12-09T01:24:30.630Z,21.60
2022-12-09T01:26:59.174Z,22.83
2022-12-09T01:29:27.652Z,23.03
2022-12-09T01:31:56.399Z,23.60
2022-12-09T01:34:24.843Z,23.17
2022-12-09T01:36:53.319Z,22.17
2022-12-09T01:39:23.308Z,23.20
2022-12-09T01:41:52.370Z,20.93
2022-12-09T01:44:21.914Z,21.23
2022-12-09T01:46:50.583Z,20.43
2022-12-09T01:49:20.882Z,20.30
2022-12-09T01:51:51.890Z,21.23
2022-12-09T01:54:20.289Z,20.93
2022-12-09T01:56:50.102Z,20.77
2022-12-09T01:59:18.670Z,18.63
2022-12-09T02:01:47.905Z,17.90
2022-12-09T02:04:16.519Z,23.00
2022-12-09T02:06:45.085Z,17.73
2022-12-09T02:09:13.826Z,16.33
2022-12-09T02:11:46.202Z,17.63
2022-12-09T02:14:17.448Z,15.43
2022-12-09T02:16:47.650Z,14.67
2022-12-09T02:19:19.339Z,15.43
2022-12-09T02:21:49.608Z,16.73
2022-12-09T02:24:19.557Z,15.33
2022-12-09T02:26:49.035Z,14.57
2022-12-09T02:29:26.511Z,14.40
2022-12-09T02:31:59.425Z,13.93
2022-12-09T02:34:30.633Z,13.63
2022-12-09T02:37:08.585Z,15.43
2022-12-09T02:39:37.749Z,14.87
2022-12-09T02:42:06.675Z,15.00
2022-12-09T02:44:35.213Z,15.73
2022-12-09T02:47:03.932Z,16.40
2022-12-09T02:49:33.917Z,16.73
2022-12-09T02:52:02.360Z,16.70
2022-12-09T02:54:31.302Z,16.70
2022-12-09T02:57:00.308Z,16.20
2022-12-09T02:59:28.872Z,17.23
2022-12-09T03:02:00.226Z,16.70
2022-12-09T03:04:29.172Z,15.93
2022-12-09T03:07:00.495Z,16.53
2022-12-09T03:09:29.398Z,16.57
2022-12-09T03:11:57.917Z,16.93
2022-12-09T03:14:27.859Z,17.13
2022-12-09T03:16:58.212Z,15.87
2022-12-09T03:19:27.817Z,16.77
2022-12-09T03:21:56.787Z,16.37
2022-12-09T03:24:35.424Z,16.50
2022-12-09T03:27:07.000Z,18.03
2022-12-09T03:29:35.908Z,17.23
2022-12-09T03:32:04.560Z,17.03
2022-12-09T03:34:36.221Z,18.67
2022-12-09T03:37:04.680Z,17.90
2022-12-09T03:39:36.473Z,17.53
2022-12-09T03:42:05.792Z,17.50
2022-12-09T03:44:37.044Z,18.73
2022-12-09T03:47:06.141Z,18.97
2022-12-09T03:49:34.936Z,18.63
2022-12-09T03:52:04.092Z,17.33
2022-12-09T03:54:34.304Z,19.03
2022-12-09T03:57:04.727Z,20.00
2022-12-09T03:59:35.348Z,18.37
2022-12-09T04:02:06.958Z,18.90
2022-12-09T04:04:36.151Z,19.57
2022-12-09T04:07:05.141Z,18.90
2022-12-09T04:09:33.622Z,16.80
2022-12-09T04:12:02.328Z,16.90
2022-12-09T04:14:32.306Z,19.10
2022-12-09T04:17:01.061Z,18.90
2022-12-09T04:19:29.727Z,18.70
2022-12-09T04:21:58.271Z,19.10
2022-12-09T04:24:26.795Z,17.70
2022-12-09T04:26:55.255Z,18.37
2022-12-09T04:29:23.832Z,20.30
2022-12-09T04:31:53.885Z,20.83
2022-12-09T04:34:22.655Z,19.57
2022-12-09T04:36:51.074Z,20.50
2022-12-09T04:39:19.578Z,19.57
2022-12-09T04:41:48.362Z,19.90
2022-12-09T04:44:16.893Z,18.77
2022-12-09T04:46:45.716Z,19.63
2022-12-09T04:49:15.617Z,19.73
2022-12-09T04:51:44.037Z,19.07
2022-12-09T04:54:13.793Z,19.03
2022-12-09T04:56:42.472Z,19.13
2022-12-09T04:59:11.093Z,19.47
2022-12-09T05:01:39.967Z,17.53
2022-12-09T05:04:08.864Z,16.97
2022-12-09T05:06:38.845Z,17.73
2022-12-09T05:09:07.443Z,18.73
2022-12-09T05:11:36.852Z,18.93
2022-12-09T05:14:05.520Z,17.97
2022-12-09T05:16:34.282Z,18.40
2022-12-09T05:19:03.178Z,17.73
2022-12-09T05:21:31.922Z,17.37
2022-12-09T05:24:01.876Z,17.30
2022-12-09T05:26:30.622Z,18.90
2022-12-09T05:28:59.137Z,18.03
2022-12-09T05:31:27.626Z,16.47
2022-12-09T05:33:56.349Z,16.23
2022-12-09T05:36:25.470Z,18.47
2022-12-09T05:38:54.193Z,18.97
2022-12-09T05:41:24.382Z,18.13
2022-12-09T05:43:53.376Z,19.07
2022-12-09T05:46:22.425Z,18.27
2022-12-09T05:48:51.693Z,18.50
2022-12-09T05:51:23.192Z,19.03
2022-12-09T05:53:51.835Z,17.87
2022-12-09T05:56:20.708Z,19.07
2022-12-09T05:58:50.980Z,17.60
2022-12-09T06:01:19.952Z,19.40
2022-12-09T06:03:49.175Z,18.07
2022-12-09T06:06:18.799Z,18.37
2022-12-09T06:08:47.483Z,19.80
2022-12-09T06:11:16.811Z,19.67
2022-12-09T06:13:45.918Z,19.83
2022-12-09T06:16:16.793Z,18.80
2022-12-09T06:18:45.268Z,19.20
2022-12-09T06:21:14.203Z,19.20
2022-12-09T06:23:43.527Z,19.17
2022-12-09T06:26:16.622Z,19.43
2022-12-09T06:28:45.229Z,18.80
2022-12-09T06:31:14.046Z,20.77
2022-12-09T06:34:00.305Z,19.43
2022-12-09T06:36:30.188Z,20.37
2022-12-09T06:39:03.116Z,19.20
2022-12-09T06:41:34.590Z,18.67
2022-12-09T06:44:03.432Z,20.60
2022-12-09T06:46:32.068Z,21.87
2022-12-09T06:49:01.973Z,19.97
2022-12-09T06:51:30.748Z,20.73
2022-12-09T06:53:59.309Z,21.23
2022-12-09T06:56:27.863Z,20.10
2022-12-09T06:58:56.805Z,20.60
2022-12-09T07:01:26.249Z,20.03
2022-12-09T07:03:55.947Z,21.30
2022-12-09T07:06:27.839Z,22.23
2022-12-09T07:08:56.683Z,21.00
2022-12-09T07:11:25.759Z,22.40
2022-12-09T07:13:54.284Z,21.93
2022-12-09T07:16:22.895Z,22.70
2022-12-09T07:18:51.905Z,20.40
2022-12-09T07:21:20.889Z,22.87
2022-12-09T07:23:51.143Z,22.33
2022-12-09T07:26:19.965Z,21.97
2022-12-09T07:28:50.145Z,20.77
2022-12-09T07:31:19.360Z,22.77
2022-12-09T07:33:48.353Z,21.80
2022-12-09T07:36:21.047Z,22.70
2022-12-09T07:38:51.615Z,23.10
2022-12-09T07:41:20.309Z,22.30
2022-12-09T07:43:49.058Z,22.33
2022-12-09T07:46:18.425Z,23.10
2022-12-09T07:48:47.219Z,23.13
2022-12-09T07:51:15.839Z,23.00
2022-12-09T07:53:44.576Z,24.43
2022-12-09T07:56:15.683Z,22.27
2022-12-09T07:58:44.582Z,23.27
2022-12-09T08:01:14.092Z,23.47
2022-12-09T08:03:42.977Z,22.03
2022-12-09T08:06:14.006Z,23.10
2022-12-09T08:08:43.079Z,23.97
2022-12-09T08:11:12.214Z,23.17
2022-12-09T08:13:43.087Z,23.63
2022-12-09T08:16:12.436Z,22.53
2022-12-09T08:18:41.536Z,22.83
2022-12-09T08:21:11.754Z,23.47
2022-12-09T08:23:40.321Z,23.93
2022-12-09T08:28:52.527Z,23.67
2022-12-09T08:31:24.877Z,23.50
2022-12-09T08:33:54.148Z,25.57
2022-12-09T08:36:23.833Z,24.17
2022-12-09T08:38:53.001Z,24.43
2022-12-09T08:41:22.349Z,25.43
2022-12-09T08:43:55.803Z,26.90
2022-12-09T08:46:24.988Z,27.23
2022-12-09T08:48:53.828Z,27.37
2022-12-09T08:51:28.524Z,28.57
2022-12-09T08:53:57.931Z,25.43
2022-12-09T08:56:27.683Z,28.43
2022-12-09T08:58:58.808Z,26.90
2022-12-09T09:01:32.958Z,26.67
2022-12-09T09:04:02.753Z,28.90
2022-12-09T09:06:32.406Z,27.63
2022-12-09T09:09:01.921Z,26.87
2022-12-09T09:11:31.000Z,27.77
2022-12-09T09:14:02.784Z,28.30
2022-12-09T09:16:31.553Z,27.73
2022-12-09T09:19:00.448Z,29.13
2022-12-09T09:21:29.336Z,29.10
2022-12-09T09:23:58.759Z,29.37
2022-12-09T09:26:40.023Z,27.10
2022-12-09T09:29:14.471Z,31.53
2022-12-09T09:31:44.853Z,29.57
2022-12-09T09:34:14.480Z,29.33
2022-12-09T09:36:44.220Z,28.73
2022-12-09T09:39:13.861Z,29.97
2022-12-09T09:41:48.071Z,29.63
2022-12-09T09:44:21.214Z,29.37
2022-12-09T09:46:51.561Z,29.27
2022-12-09T09:49:34.739Z,28.27
2022-12-09T09:55:41.642Z,29.17
2022-12-09T09:58:16.503Z,29.50
2022-12-09T10:00:49.343Z,30.30
2022-12-09T10:03:25.178Z,28.10
2022-12-09T10:05:55.377Z,30.83
2022-12-09T10:08:32.339Z,32.00
2022-12-09T10:11:06.961Z,31.93
2022-12-09T10:13:39.740Z,31.40
2022-12-09T10:16:14.667Z,31.67
2022-12-09T10:18:45.630Z,31.67
2022-12-09T10:21:18.020Z,31.40
2022-12-09T10:23:47.072Z,31.53
2022-12-09T10:26:18.732Z,32.00
2022-12-09T10:28:54.913Z,31.50
2022-12-09T10:31:25.317Z,32.33
2022-12-09T10:33:54.806Z,31.73
2022-12-09T10:36:28.243Z,32.50
2022-12-09T10:39:01.649Z,32.00
2022-12-09T10:42:03.012Z,30.77
2022-12-09T10:44:32.752Z,31.80
2022-12-09T10:47:04.211Z,32.00
2022-12-09T10:49:33.995Z,34.20
2022-12-09T10:52:05.495Z,33.00
2022-12-09T10:54:38.646Z,34.00
2022-12-09T10:57:12.680Z,33.67
2022-12-09T10:59:42.467Z,35.23
2022-12-09T11:02:23.809Z,34.57
2022-12-09T11:04:53.629Z,35.77
2022-12-09T11:07:23.887Z,34.93
2022-12-09T11:09:53.503Z,36.87
2022-12-09T11:12:40.246Z,35.93
2022-12-09T11:15:27.945Z,35.90
2022-12-09T11:17:59.502Z,35.60
2022-12-09T11:20:30.440Z,35.80
2022-12-09T11:23:04.424Z,35.93
2022-12-09T11:25:33.855Z,36.83
2022-12-09T11:28:05.412Z,38.00
2022-12-09T11:30:57.882Z,38.00
2022-12-09T11:33:33.355Z,37.10
2022-12-09T11:38:39.750Z,38.87
2022-12-09T11:41:40.647Z,37.33
2022-12-09T11:44:17.096Z,37.63
2022-12-09T11:46:46.276Z,38.57
2022-12-09T11:49:19.679Z,36.70
2022-12-09T11:52:00.464Z,36.40
2022-12-09T11:54:33.506Z,34.63
2022-12-09T11:57:05.667Z,34.73
2022-12-09T11:59:42.333Z,33.80
2022-12-09T12:02:14.552Z,33.50
2022-12-09T12:04:57.064Z,33.17
2022-12-09T12:07:31.433Z,31.37
2022-12-09T12:10:02.781Z,32.17
2022-12-09T12:12:37.248Z,32.37
2022-12-09T12:15:13.262Z,30.20
2022-12-09T12:17:46.399Z,29.37
2022-12-09T12:20:17.558Z,27.43
2022-12-09T12:23:07.327Z,29.93
2022-12-09T12:25:45.879Z,30.40
2022-12-09T12:28:21.935Z,29.23
2022-12-09T12:30:52.326Z,29.87
2022-12-09T12:36:31.054Z,28.17
2022-12-09T12:39:04.071Z,28.07
2022-12-09T12:41:36.380Z,29.17
2022-12-09T12:44:37.761Z,27.97
2022-12-09T12:47:09.475Z,27.53
2022-12-09T12:49:53.076Z,28.23
2022-12-09T12:53:01.191Z,27.17
2022-12-09T12:55:23.529Z,27.77
2022-12-09T12:57:54.660Z,27.73
2022-12-09T13:00:24.496Z,27.30
2022-12-09T13:03:00.860Z,26.53
2022-12-09T13:05:34.436Z,26.30
2022-12-09T13:08:06.086Z,27.20
2022-12-09T13:10:35.094Z,26.37
2022-12-09T13:13:04.195Z,25.30
2022-12-09T13:15:33.699Z,26.23
2022-12-09T13:18:08.443Z,26.43
2022-12-09T13:20:40.490Z,25.37
2022-12-09T13:23:15.938Z,25.17
2022-12-09T13:25:49.447Z,26.13
2022-12-09T13:28:22.247Z,25.50
2022-12-09T13:30:54.501Z,24.97
2022-12-09T13:33:29.992Z,25.57
2022-12-09T13:36:05.434Z,25.37
2022-12-09T13:38:40.893Z,24.97
2022-12-09T13:41:27.956Z,25.77
2022-12-09T13:43:56.536Z,24.93
2022-12-09T13:46:28.319Z,24.23
2022-12-09T13:48:59.009Z,23.93
2022-12-09T13:51:27.990Z,24.73
2022-12-09T13:54:04.041Z,24.73
2022-12-09T13:56:32.828Z,22.97
2022-12-09T13:59:05.650Z,24.67
2022-12-09T14:01:35.241Z,22.50
2022-12-09T14:04:06.799Z,23.50
2022-12-09T14:06:36.560Z,23.13
2022-12-09T14:09:08.199Z,24.37
2022-12-09T14:11:47.526Z,22.63
2022-12-09T14:14:35.366Z,22.30
2022-12-09T14:17:05.582Z,22.90
2022-12-09T14:19:53.982Z,24.50
2022-12-09T14:22:34.970Z,23.07
2022-12-09T14:25:18.405Z,23.07
2022-12-09T14:28:12.417Z,21.97
2022-12-09T14:31:04.858Z,22.73
2022-12-09T14:33:37.152Z,21.30
2022-12-09T14:36:06.820Z,21.07
2022-12-09T14:38:42.106Z,21.47
2022-12-09T14:41:20.201Z,21.40
2022-12-09T14:44:00.135Z,21.70
2022-12-09T14:46:32.607Z,21.80
2022-12-09T14:49:04.915Z,22.07
2022-12-09T14:51:36.077Z,21.60
2022-12-09T14:54:05.681Z,22.57
2022-12-09T14:56:34.233Z,20.40
2022-12-09T14:59:04.336Z,22.93
2022-12-09T15:01:32.761Z,24.17
2022-12-09T15:04:03.529Z,24.00
2022-12-09T15:06:32.166Z,25.97
2022-12-09T15:09:01.821Z,24.00
2022-12-09T15:11:31.845Z,24.63
2022-12-09T15:14:20.290Z,26.00
2022-12-09T15:16:51.066Z,25.43
2022-12-09T15:19:51.177Z,24.80
2022-12-09T15:22:08.779Z,24.37
2022-12-09T15:24:49.670Z,24.83
2022-12-09T15:27:19.863Z,24.53
2022-12-09T15:29:49.361Z,26.10
2022-12-09T15:32:23.379Z,25.17
2022-12-09T15:34:51.861Z,23.13
2022-12-09T15:37:21.386Z,24.40
2022-12-09T15:43:21.418Z,22.43
2022-12-09T15:45:49.957Z,22.13
2022-12-09T15:48:20.161Z,21.53
2022-12-09T15:50:49.878Z,22.00
2022-12-09T15:53:19.555Z,22.97
2022-12-09T15:55:50.575Z,22.03
2022-12-09T15:58:20.012Z,21.00
2022-12-09T16:00:49.106Z,22.03
2022-12-09T16:03:18.095Z,22.03
2022-12-09T16:05:47.897Z,21.00
2022-12-09T16:08:16.396Z,21.97
2022-12-09T16:10:48.280Z,21.50
2022-12-09T16:13:17.977Z,20.83
2022-12-09T16:15:53.797Z,21.73
2022-12-09T16:18:25.032Z,21.67
2022-12-09T16:21:02.681Z,21.90
2022-12-09T16:23:31.393Z,21.87
2022-12-09T16:26:31.148Z,22.87
2022-12-09T16:29:00.135Z,22.00
2022-12-09T16:31:28.557Z,22.13
2022-12-09T16:33:57.160Z,20.77
2022-12-09T16:36:55.365Z,22.27
2022-12-09T16:39:34.842Z,23.70
2022-12-09T16:42:03.521Z,24.97
2022-12-09T16:44:33.944Z,38.57
2022-12-09T16:47:21.563Z,30.23
2022-12-09T16:49:50.205Z,27.77
2022-12-09T16:52:19.529Z,25.10
2022-12-09T16:54:49.478Z,24.43
2022-12-09T16:57:19.744Z,24.07
2022-12-09T16:59:48.128Z,24.93
2022-12-09T17:02:18.233Z,24.53
2022-12-09T17:04:46.808Z,26.33
2022-12-09T17:07:15.213Z,27.57
2022-12-09T17:09:43.671Z,25.77
2022-12-09T17:12:13.487Z,24.57
2022-12-09T17:14:42.291Z,24.30
2022-12-09T17:17:10.764Z,24.23
2022-12-09T17:19:39.382Z,24.70
2022-12-09T17:22:07.881Z,24.57
2022-12-09T17:24:36.311Z,25.13
2022-12-09T17:27:05.570Z,26.70
2022-12-09T17:29:37.617Z,28.83
2022-12-09T17:32:07.556Z,28.87
2022-12-09T17:34:42.276Z,29.10
2022-12-09T17:37:11.239Z,28.63
2022-12-09T17:39:39.839Z,27.47
2022-12-09T17:42:09.307Z,26.33
2022-12-09T17:44:43.154Z,25.60
2022-12-09T17:47:13.407Z,25.97
2022-12-09T17:49:42.107Z,25.73
2022-12-09T17:52:11.157Z,28.13
2022-12-09T17:54:39.631Z,27.77
2022-12-09T17:57:08.160Z,27.60
2022-12-09T17:59:36.567Z,25.50
2022-12-09T18:02:06.450Z,26.57
2022-12-09T18:04:34.962Z,25.30
2022-12-09T18:07:03.557Z,26.33
2022-12-09T18:09:31.970Z,26.67
2022-12-09T18:12:00.361Z,27.80
2022-12-09T18:14:29.394Z,28.17
2022-12-09T18:16:58.230Z,26.77
2022-12-09T18:19:28.447Z,27.50
2022-12-09T18:21:59.021Z,28.17
2022-12-09T18:24:27.365Z,25.90
2022-12-09T18:26:55.841Z,27.27
2022-12-09T18:29:24.589Z,27.70
2022-12-09T18:31:56.181Z,26.50
2022-12-09T18:34:24.732Z,27.90
2022-12-09T18:36:54.660Z,27.53
2022-12-09T18:39:23.125Z,27.90
2022-12-09T18:41:51.474Z,29.23
2022-12-09T18:44:19.907Z,27.73
2022-12-09T18:46:49.823Z,29.13
2022-12-09T18:49:18.884Z,29.57
2022-12-09T18:51:47.298Z,29.33
2022-12-09T18:54:17.969Z,28.93
2022-12-09T18:56:46.335Z,29.20
2022-12-09T18:59:14.764Z,31.17
2022-12-09T19:01:43.652Z,32.10
2022-12-09T19:04:13.770Z,32.67
2022-12-09T19:06:42.518Z,32.67
2022-12-09T19:09:12.409Z,33.47
2022-12-09T19:11:42.450Z,34.00
2022-12-09T19:14:11.276Z,33.77
2022-12-09T19:16:39.775Z,34.77
2022-12-09T19:19:10.484Z,33.90
2022-12-09T19:21:39.234Z,34.90
2022-12-09T19:24:08.135Z,34.23
2022-12-09T19:26:36.755Z,34.97
2022-12-09T19:29:07.051Z,33.80
2022-12-09T19:31:36.880Z,34.33
2022-12-09T19:34:08.221Z,34.47
2022-12-09T19:36:36.786Z,33.43
2022-12-09T19:39:06.079Z,33.27
2022-12-09T19:41:34.647Z,33.20
2022-12-09T19:44:04.086Z,33.87
2022-12-09T19:46:34.050Z,31.73
2022-12-09T19:49:02.653Z,32.00
2022-12-09T19:51:31.296Z,32.10
2022-12-09T19:54:00.401Z,31.50
2022-12-09T19:56:28.812Z,32.07
2022-12-09T19:58:57.322Z,30.17
2022-12-09T20:01:26.479Z,31.20
2022-12-09T20:04:08.563Z,31.13
2022-12-09T20:06:42.419Z,32.20
2022-12-09T20:09:14.897Z,31.03
2022-12-09T20:11:43.635Z,31.57
2022-12-09T20:14:12.812Z,31.20
2022-12-09T20:16:41.239Z,33.23
2022-12-09T20:19:11.668Z,34.00
2022-12-09T20:21:40.698Z,32.07
2022-12-09T20:24:10.382Z,30.23
2022-12-09T20:26:39.176Z,28.03
2022-12-09T20:29:08.018Z,31.40
2022-12-09T20:31:36.965Z,29.97
2022-12-09T20:34:06.613Z,27.70
2022-12-09T20:36:36.867Z,27.97
2022-12-09T20:39:06.378Z,28.23
2022-12-09T20:41:34.869Z,29.40
2022-12-09T20:44:03.320Z,28.20
2022-12-09T20:46:32.241Z,27.93
2022-12-09T20:49:01.047Z,28.90
2022-12-09T20:51:29.806Z,29.00
2022-12-09T20:53:59.614Z,28.53
2022-12-09T20:56:28.279Z,29.20
2022-12-09T20:58:57.159Z,31.80
2022-12-09T21:01:26.134Z,29.57
2022-12-09T21:03:55.389Z,31.87
2022-12-09T21:06:24.708Z,28.63
2022-12-09T21:08:53.883Z,36.20
2022-12-09T21:11:23.962Z,30.93
2022-12-09T21:13:55.875Z,33.30
2022-12-09T21:16:25.452Z,32.93
2022-12-09T21:18:54.825Z,34.43
2022-12-09T21:21:23.784Z,30.67
2022-12-09T21:23:54.340Z,35.30
2022-12-09T21:26:27.247Z,35.47
2022-12-09T21:28:55.780Z,32.57
2022-12-09T21:31:25.030Z,32.00
2022-12-09T21:33:54.326Z,34.93
2022-12-09T21:36:23.461Z,33.13
2022-12-09T21:38:51.973Z,29.93
2022-12-09T21:41:20.944Z,28.60
2022-12-09T21:43:50.894Z,27.87
2022-12-09T21:46:20.156Z,26.73
2022-12-09T21:48:52.368Z,28.43
2022-12-09T21:51:21.469Z,28.30
2022-12-09T21:53:50.341Z,30.17
2022-12-09T21:56:20.151Z,30.80
2022-12-09T21:58:51.411Z,32.70
2022-12-09T22:01:21.390Z,31.03
2022-12-09T22:03:50.221Z,30.97
2022-12-09T22:06:18.701Z,28.57
2022-12-09T22:08:47.171Z,28.63
2022-12-09T22:11:16.626Z,26.67
2022-12-09T22:13:45.158Z,27.77
2022-12-09T22:16:16.419Z,28.33
2022-12-09T22:18:45.016Z,28.93
2022-12-09T22:21:30.315Z,28.87
2022-12-09T22:24:00.480Z,29.27
2022-12-09T22:26:28.906Z,27.50
2022-12-09T22:28:57.886Z,28.03
2022-12-09T22:31:28.415Z,29.00
2022-12-09T22:33:57.114Z,27.57
2022-12-09T22:36:25.505Z,29.70
2022-12-09T22:38:59.606Z,31.00
2022-12-09T22:41:29.886Z,31.00
2022-12-09T22:43:58.735Z,30.07
2022-12-09T22:46:29.467Z,32.57
2022-12-09T22:48:59.151Z,32.70
2022-12-09T22:51:28.956Z,31.97
2022-12-09T22:54:09.634Z,31.50
2022-12-09T22:56:38.723Z,32.60
2022-12-09T22:59:07.163Z,33.53
2022-12-09T23:01:38.456Z,32.80
2022-12-09T23:04:08.818Z,33.70
2022-12-09T23:06:37.596Z,33.73
2022-12-09T23:09:06.548Z,32.53
2022-12-09T23:11:43.078Z,34.37
2022-12-09T23:14:16.269Z,35.80
2022-12-09T23:16:47.355Z,34.57
2022-12-09T23:19:19.230Z,33.90
2022-12-09T23:21:50.835Z,34.90
2022-12-09T23:24:24.632Z,35.23
2022-12-09T23:26:57.632Z,33.47
2022-12-09T23:29:27.208Z,35.03
2022-12-09T23:31:58.212Z,34.37
2022-12-09T23:34:26.563Z,34.67
2022-12-09T23:36:56.568Z,35.97
2022-12-09T23:39:26.837Z,33.63
2022-12-09T23:41:55.243Z,35.27
2022-12-09T23:44:23.763Z,33.97
2022-12-09T23:46:52.830Z,34.73
2022-12-09T23:49:22.614Z,34.70
2022-12-09T23:51:51.103Z,34.20
2022-12-09T23:54:20.911Z,35.60
2022-12-09T23:56:50.764Z,34.80
2022-12-09T23:59:19.889Z,34.67
